sensor_id;sensor_type;location;lat;lon;timestamp;pressure;altitude;pressure_sealevel;temperature
81177;BMP280;74095;48.270;14.200;2023-11-19T00:00:35;98298.00;;;5.24
81177;BMP280;74095;48.270;14.200;2023-11-19T00:03:01;98301.69;;;5.23
81177;BMP280;74095;48.270;14.200;2023-11-19T00:05:27;98294.25;;;5.20
81177;BMP280;74095;48.270;14.200;2023-11-19T00:07:53;98287.47;;;5.29
81177;BMP280;74095;48.270;14.200;2023-11-19T00:10:19;98276.34;;;5.27
81177;BMP280;74095;48.270;14.200;2023-11-19T00:12:47;98271.47;;;5.19
81177;BMP280;74095;48.270;14.200;2023-11-19T00:15:14;98265.72;;;5.22
81177;BMP280;74095;48.270;14.200;2023-11-19T00:17:41;98257.53;;;5.24
81177;BMP280;74095;48.270;14.200;2023-11-19T00:20:20;98259.91;;;5.25
81177;BMP280;74095;48.270;14.200;2023-11-19T00:22:47;98268.59;;;5.21
81177;BMP280;74095;48.270;14.200;2023-11-19T00:25:20;98263.00;;;5.17
81177;BMP280;74095;48.270;14.200;2023-11-19T00:27:50;98269.09;;;5.18
81177;BMP280;74095;48.270;14.200;2023-11-19T00:30:17;98273.38;;;5.24
81177;BMP280;74095;48.270;14.200;2023-11-19T00:32:43;98280.38;;;5.35
81177;BMP280;74095;48.270;14.200;2023-11-19T00:35:09;98262.44;;;5.37
81177;BMP280;74095;48.270;14.200;2023-11-19T00:37:39;98245.13;;;5.29
81177;BMP280;74095;48.270;14.200;2023-11-19T00:40:06;98215.53;;;5.06
81177;BMP280;74095;48.270;14.200;2023-11-19T00:42:32;98228.50;;;5.07
81177;BMP280;74095;48.270;14.200;2023-11-19T00:44:58;98250.91;;;5.26
81177;BMP280;74095;48.270;14.200;2023-11-19T00:47:24;98255.94;;;5.23
81177;BMP280;74095;48.270;14.200;2023-11-19T00:49:50;98240.31;;;5.00
81177;BMP280;74095;48.270;14.200;2023-11-19T00:52:16;98217.72;;;4.92
81177;BMP280;74095;48.270;14.200;2023-11-19T00:54:43;98239.16;;;4.91
81177;BMP280;74095;48.270;14.200;2023-11-19T00:57:09;98224.06;;;4.91
81177;BMP280;74095;48.270;14.200;2023-11-19T00:59:35;98212.84;;;4.79
81177;BMP280;74095;48.270;14.200;2023-11-19T01:02:01;98206.25;;;4.81
81177;BMP280;74095;48.270;14.200;2023-11-19T01:04:29;98212.03;;;4.78
81177;BMP280;74095;48.270;14.200;2023-11-19T01:06:55;98218.44;;;4.82
81177;BMP280;74095;48.270;14.200;2023-11-19T01:09:21;98209.91;;;4.59
81177;BMP280;74095;48.270;14.200;2023-11-19T01:11:47;98207.41;;;4.69
81177;BMP280;74095;48.270;14.200;2023-11-19T01:14:13;98208.06;;;4.59
81177;BMP280;74095;48.270;14.200;2023-11-19T01:16:39;98204.16;;;4.62
81177;BMP280;74095;48.270;14.200;2023-11-19T01:19:05;98203.94;;;4.47
81177;BMP280;74095;48.270;14.200;2023-11-19T01:21:31;98208.28;;;4.36
81177;BMP280;74095;48.270;14.200;2023-11-19T01:23:57;98193.38;;;4.08
81177;BMP280;74095;48.270;14.200;2023-11-19T01:26:25;98166.19;;;4.08
81177;BMP280;74095;48.270;14.200;2023-11-19T01:28:51;98184.72;;;4.29
81177;BMP280;74095;48.270;14.200;2023-11-19T01:31:18;98187.44;;;4.34
81177;BMP280;74095;48.270;14.200;2023-11-19T01:33:45;98185.06;;;4.38
81177;BMP280;74095;48.270;14.200;2023-11-19T01:36:15;98175.19;;;4.28
81177;BMP280;74095;48.270;14.200;2023-11-19T01:38:40;98175.72;;;4.30
81177;BMP280;74095;48.270;14.200;2023-11-19T01:41:06;98174.53;;;4.21
81177;BMP280;74095;48.270;14.200;2023-11-19T01:43:36;98187.44;;;4.34
81177;BMP280;74095;48.270;14.200;2023-11-19T01:46:04;98175.19;;;4.28
81177;BMP280;74095;48.270;14.200;2023-11-19T01:48:31;98173.75;;;4.21
81177;BMP280;74095;48.270;14.200;2023-11-19T01:50:58;98152.41;;;4.06
81177;BMP280;74095;48.270;14.200;2023-11-19T01:53:24;98151.22;;;4.13
81177;BMP280;74095;48.270;14.200;2023-11-19T01:55:50;98152.81;;;4.36
81177;BMP280;74095;48.270;14.200;2023-11-19T01:58:18;98145.72;;;4.20
81177;BMP280;74095;48.270;14.200;2023-11-19T02:00:45;98135.97;;;4.20
81177;BMP280;74095;48.270;14.200;2023-11-19T02:03:11;98145.41;;;4.16
81177;BMP280;74095;48.270;14.200;2023-11-19T02:05:38;98146.53;;;4.20
81177;BMP280;74095;48.270;14.200;2023-11-19T02:08:05;98137.72;;;4.15
81177;BMP280;74095;48.270;14.200;2023-11-19T02:10:31;98129.41;;;4.23
81177;BMP280;74095;48.270;14.200;2023-11-19T02:12:58;98134.22;;;4.48
81177;BMP280;74095;48.270;14.200;2023-11-19T02:15:24;98128.50;;;4.56
81177;BMP280;74095;48.270;14.200;2023-11-19T02:17:51;98131.63;;;4.31
81177;BMP280;74095;48.270;14.200;2023-11-19T02:20:17;98119.06;;;4.00
81177;BMP280;74095;48.270;14.200;2023-11-19T02:22:46;98128.59;;;4.22
81177;BMP280;74095;48.270;14.200;2023-11-19T02:25:30;98119.38;;;4.03
81177;BMP280;74095;48.270;14.200;2023-11-19T02:28:02;98120.72;;;4.06
81177;BMP280;74095;48.270;14.200;2023-11-19T02:30:28;98103.41;;;4.15
81177;BMP280;74095;48.270;14.200;2023-11-19T02:32:58;98105.47;;;4.29
81177;BMP280;74095;48.270;14.200;2023-11-19T02:35:25;98102.94;;;4.18
81177;BMP280;74095;48.270;14.200;2023-11-19T02:37:51;98105.94;;;4.05
81177;BMP280;74095;48.270;14.200;2023-11-19T02:40:17;98087.59;;;3.98
81177;BMP280;74095;48.270;14.200;2023-11-19T02:42:44;98078.22;;;3.85
81177;BMP280;74095;48.270;14.200;2023-11-19T02:45:10;98087.84;;;4.13
81177;BMP280;74095;48.270;14.200;2023-11-19T02:47:43;98099.72;;;4.37
81177;BMP280;74095;48.270;14.200;2023-11-19T02:50:11;98085.97;;;4.14
81177;BMP280;74095;48.270;14.200;2023-11-19T02:52:44;98078.34;;;4.34
81177;BMP280;74095;48.270;14.200;2023-11-19T02:55:12;98086.66;;;4.48
81177;BMP280;74095;48.270;14.200;2023-11-19T02:57:41;98070.50;;;4.22
81177;BMP280;74095;48.270;14.200;2023-11-19T03:00:22;98081.72;;;4.29
81177;BMP280;74095;48.270;14.200;2023-11-19T03:02:58;98075.84;;;4.27
81177;BMP280;74095;48.270;14.200;2023-11-19T03:05:43;98075.44;;;4.35
81177;BMP280;74095;48.270;14.200;2023-11-19T03:08:13;98063.22;;;4.29
81177;BMP280;74095;48.270;14.200;2023-11-19T03:10:50;98051.94;;;4.17
81177;BMP280;74095;48.270;14.200;2023-11-19T03:13:16;98073.22;;;4.27
81177;BMP280;74095;48.270;14.200;2023-11-19T03:15:45;98087.97;;;4.23
81177;BMP280;74095;48.270;14.200;2023-11-19T03:18:11;98080.09;;;4.28
81177;BMP280;74095;48.270;14.200;2023-11-19T03:20:46;98061.78;;;4.44
81177;BMP280;74095;48.270;14.200;2023-11-19T03:23:23;98062.97;;;4.58
81177;BMP280;74095;48.270;14.200;2023-11-19T03:26:06;98064.84;;;4.57
81177;BMP280;74095;48.270;14.200;2023-11-19T03:28:39;98058.09;;;4.45
81177;BMP280;74095;48.270;14.200;2023-11-19T03:31:20;98045.78;;;4.55
81177;BMP280;74095;48.270;14.200;2023-11-19T03:33:51;98045.94;;;4.70
81177;BMP280;74095;48.270;14.200;2023-11-19T03:36:34;98019.91;;;4.57
81177;BMP280;74095;48.270;14.200;2023-11-19T03:39:01;98034.59;;;4.75
81177;BMP280;74095;48.270;14.200;2023-11-19T03:41:32;98021.88;;;4.67
81177;BMP280;74095;48.270;14.200;2023-11-19T03:44:06;97997.09;;;4.46
81177;BMP280;74095;48.270;14.200;2023-11-19T03:46:41;97995.78;;;4.49
81177;BMP280;74095;48.270;14.200;2023-11-19T03:49:10;97996.38;;;4.29
81177;BMP280;74095;48.270;14.200;2023-11-19T03:51:38;97996.59;;;4.49
81177;BMP280;74095;48.270;14.200;2023-11-19T03:54:11;98001.16;;;4.59
81177;BMP280;74095;48.270;14.200;2023-11-19T03:56:47;98005.44;;;4.65
81177;BMP280;74095;48.270;14.200;2023-11-19T03:59:23;97992.47;;;4.63
81177;BMP280;74095;48.270;14.200;2023-11-19T04:01:49;97999.75;;;4.78
81177;BMP280;74095;48.270;14.200;2023-11-19T04:04:18;97996.06;;;4.79
81177;BMP280;74095;48.270;14.200;2023-11-19T04:06:44;97978.53;;;4.68
81177;BMP280;74095;48.270;14.200;2023-11-19T04:09:10;97990.19;;;4.72
81177;BMP280;74095;48.270;14.200;2023-11-19T04:11:39;97993.84;;;4.66
81177;BMP280;74095;48.270;14.200;2023-11-19T04:14:11;97976.84;;;4.57
81177;BMP280;74095;48.270;14.200;2023-11-19T04:16:39;97960.63;;;4.21
81177;BMP280;74095;48.270;14.200;2023-11-19T04:19:05;97979.13;;;4.48
81177;BMP280;74095;48.270;14.200;2023-11-19T04:21:39;97973.72;;;4.65
81177;BMP280;74095;48.270;14.200;2023-11-19T04:24:24;97987.00;;;4.75
81177;BMP280;74095;48.270;14.200;2023-11-19T04:27:01;97956.22;;;4.59
81177;BMP280;74095;48.270;14.200;2023-11-19T04:29:32;97966.13;;;4.73
81177;BMP280;74095;48.270;14.200;2023-11-19T04:32:04;97984.97;;;4.82
81177;BMP280;74095;48.270;14.200;2023-11-19T04:34:39;97988.66;;;4.81
81177;BMP280;74095;48.270;14.200;2023-11-19T04:37:07;97968.28;;;4.76
81177;BMP280;74095;48.270;14.200;2023-11-19T04:39:53;97973.59;;;4.81
81177;BMP280;74095;48.270;14.200;2023-11-19T04:42:25;97964.03;;;4.75
81177;BMP280;74095;48.270;14.200;2023-11-19T04:44:56;97975.41;;;4.76
81177;BMP280;74095;48.270;14.200;2023-11-19T04:47:25;97962.69;;;4.73
81177;BMP280;74095;48.270;14.200;2023-11-19T04:49:53;97970.34;;;4.74
81177;BMP280;74095;48.270;14.200;2023-11-19T04:52:19;97976.50;;;4.80
81177;BMP280;74095;48.270;14.200;2023-11-19T04:54:46;97983.56;;;4.74
81177;BMP280;74095;48.270;14.200;2023-11-19T04:57:20;97970.13;;;4.76
81177;BMP280;74095;48.270;14.200;2023-11-19T04:59:46;97973.31;;;4.78
81177;BMP280;74095;48.270;14.200;2023-11-19T05:02:15;97958.25;;;4.78
81177;BMP280;74095;48.270;14.200;2023-11-19T05:04:44;97962.53;;;4.84
81177;BMP280;74095;48.270;14.200;2023-11-19T05:07:15;97956.50;;;4.94
81177;BMP280;74095;48.270;14.200;2023-11-19T05:09:44;97944.72;;;4.75
81177;BMP280;74095;48.270;14.200;2023-11-19T05:12:10;97963.63;;;4.89
81177;BMP280;74095;48.270;14.200;2023-11-19T05:14:38;97967.06;;;4.89
81177;BMP280;74095;48.270;14.200;2023-11-19T05:17:04;97957.00;;;4.91
81177;BMP280;74095;48.270;14.200;2023-11-19T05:19:30;97940.31;;;4.85
81177;BMP280;74095;48.270;14.200;2023-11-19T05:22:04;97959.41;;;4.93
81177;BMP280;74095;48.270;14.200;2023-11-19T05:24:34;97961.81;;;4.94
81177;BMP280;74095;48.270;14.200;2023-11-19T05:27:05;97954.97;;;4.98
81177;BMP280;74095;48.270;14.200;2023-11-19T05:29:33;97946.19;;;4.93
81177;BMP280;74095;48.270;14.200;2023-11-19T05:32:02;97960.00;;;5.00
81177;BMP280;74095;48.270;14.200;2023-11-19T05:34:31;97952.03;;;4.95
81177;BMP280;74095;48.270;14.200;2023-11-19T05:36:57;97960.75;;;4.95
81177;BMP280;74095;48.270;14.200;2023-11-19T05:39:23;97949.56;;;4.83
81177;BMP280;74095;48.270;14.200;2023-11-19T05:41:55;97958.59;;;4.92
81177;BMP280;74095;48.270;14.200;2023-11-19T05:44:24;97951.38;;;4.77
81177;BMP280;74095;48.270;14.200;2023-11-19T05:46:53;97945.28;;;4.77
81177;BMP280;74095;48.270;14.200;2023-11-19T05:49:20;97944.03;;;4.84
81177;BMP280;74095;48.270;14.200;2023-11-19T05:51:46;97954.75;;;4.73
81177;BMP280;74095;48.270;14.200;2023-11-19T05:54:12;97956.75;;;4.88
81177;BMP280;74095;48.270;14.200;2023-11-19T05:56:41;97953.25;;;4.82
81177;BMP280;74095;48.270;14.200;2023-11-19T05:59:08;97928.06;;;4.74
81177;BMP280;74095;48.270;14.200;2023-11-19T06:01:41;97950.56;;;4.77
81177;BMP280;74095;48.270;14.200;2023-11-19T06:04:15;97947.53;;;4.90
81177;BMP280;74095;48.270;14.200;2023-11-19T06:06:42;97935.69;;;4.66
81177;BMP280;74095;48.270;14.200;2023-11-19T06:09:11;97951.84;;;4.74
81177;BMP280;74095;48.270;14.200;2023-11-19T06:11:44;97951.69;;;4.86
81177;BMP280;74095;48.270;14.200;2023-11-19T06:14:13;97956.50;;;4.89
81177;BMP280;74095;48.270;14.200;2023-11-19T06:16:39;97952.06;;;4.63
81177;BMP280;74095;48.270;14.200;2023-11-19T06:19:06;97958.59;;;4.28
81177;BMP280;74095;48.270;14.200;2023-11-19T06:21:36;97940.00;;;4.18
81177;BMP280;74095;48.270;14.200;2023-11-19T06:24:03;97937.81;;;4.10
81177;BMP280;74095;48.270;14.200;2023-11-19T06:26:29;97924.25;;;4.02
81177;BMP280;74095;48.270;14.200;2023-11-19T06:29:03;97946.91;;;4.24
81177;BMP280;74095;48.270;14.200;2023-11-19T06:31:33;97937.25;;;4.08
81177;BMP280;74095;48.270;14.200;2023-11-19T06:33:59;97920.22;;;4.21
81177;BMP280;74095;48.270;14.200;2023-11-19T06:36:26;97963.22;;;4.70
81177;BMP280;74095;48.270;14.200;2023-11-19T06:38:53;97948.50;;;4.79
81177;BMP280;74095;48.270;14.200;2023-11-19T06:41:19;97935.03;;;4.85
81177;BMP280;74095;48.270;14.200;2023-11-19T06:43:46;97931.06;;;4.83
81177;BMP280;74095;48.270;14.200;2023-11-19T06:46:19;97934.25;;;4.53
81177;BMP280;74095;48.270;14.200;2023-11-19T06:48:46;97947.31;;;4.38
81177;BMP280;74095;48.270;14.200;2023-11-19T06:51:15;97956.19;;;4.54
81177;BMP280;74095;48.270;14.200;2023-11-19T06:53:45;97933.56;;;4.63
81177;BMP280;74095;48.270;14.200;2023-11-19T06:56:21;97943.63;;;4.66
81177;BMP280;74095;48.270;14.200;2023-11-19T06:58:54;97931.81;;;4.47
81177;BMP280;74095;48.270;14.200;2023-11-19T07:01:23;97940.13;;;4.60
81177;BMP280;74095;48.270;14.200;2023-11-19T07:03:54;97936.31;;;4.46
81177;BMP280;74095;48.270;14.200;2023-11-19T07:06:20;97934.78;;;4.55
81177;BMP280;74095;48.270;14.200;2023-11-19T07:08:49;97931.28;;;4.45
81177;BMP280;74095;48.270;14.200;2023-11-19T07:11:16;97920.72;;;3.91
81177;BMP280;74095;48.270;14.200;2023-11-19T07:13:43;97925.59;;;4.04
81177;BMP280;74095;48.270;14.200;2023-11-19T07:16:09;97937.56;;;4.38
81177;BMP280;74095;48.270;14.200;2023-11-19T07:18:36;97946.06;;;4.72
81177;BMP280;74095;48.270;14.200;2023-11-19T07:21:05;97943.25;;;4.84
81177;BMP280;74095;48.270;14.200;2023-11-19T07:23:33;97929.03;;;4.90
81177;BMP280;74095;48.270;14.200;2023-11-19T07:26:00;97900.97;;;4.89
81177;BMP280;74095;48.270;14.200;2023-11-19T07:28:33;97938.09;;;5.09
81177;BMP280;74095;48.270;14.200;2023-11-19T07:31:03;97932.06;;;5.14
81177;BMP280;74095;48.270;14.200;2023-11-19T07:33:30;97924.91;;;5.14
81177;BMP280;74095;48.270;14.200;2023-11-19T07:35:56;97935.31;;;5.31
81177;BMP280;74095;48.270;14.200;2023-11-19T07:38:22;97942.00;;;5.39
81177;BMP280;74095;48.270;14.200;2023-11-19T07:40:54;97933.50;;;5.37
81177;BMP280;74095;48.270;14.200;2023-11-19T07:43:21;97937.50;;;5.44
81177;BMP280;74095;48.270;14.200;2023-11-19T07:45:48;97919.25;;;5.38
81177;BMP280;74095;48.270;14.200;2023-11-19T07:48:15;97933.03;;;5.45
81177;BMP280;74095;48.270;14.200;2023-11-19T07:50:44;97932.50;;;5.48
81177;BMP280;74095;48.270;14.200;2023-11-19T07:53:13;97935.16;;;5.48
81177;BMP280;74095;48.270;14.200;2023-11-19T07:55:42;97949.44;;;5.47
81177;BMP280;74095;48.270;14.200;2023-11-19T07:58:15;97948.94;;;5.50
81177;BMP280;74095;48.270;14.200;2023-11-19T08:00:42;97944.69;;;5.49
81177;BMP280;74095;48.270;14.200;2023-11-19T08:03:08;97935.97;;;5.58
81177;BMP280;74095;48.270;14.200;2023-11-19T08:05:35;97933.09;;;5.60
81177;BMP280;74095;48.270;14.200;2023-11-19T08:08:05;97935.72;;;5.55
81177;BMP280;74095;48.270;14.200;2023-11-19T08:10:34;97932.28;;;5.59
81177;BMP280;74095;48.270;14.200;2023-11-19T08:13:03;97941.06;;;5.75
81177;BMP280;74095;48.270;14.200;2023-11-19T08:15:29;97935.78;;;5.70
81177;BMP280;74095;48.270;14.200;2023-11-19T08:17:56;97932.03;;;5.61
81177;BMP280;74095;48.270;14.200;2023-11-19T08:20:25;97952.72;;;5.69
81177;BMP280;74095;48.270;14.200;2023-11-19T08:22:54;97936.03;;;5.68
81177;BMP280;74095;48.270;14.200;2023-11-19T08:25:24;97917.19;;;5.60
81177;BMP280;74095;48.270;14.200;2023-11-19T08:27:50;97932.56;;;5.63
81177;BMP280;74095;48.270;14.200;2023-11-19T08:30:20;97917.19;;;5.60
81177;BMP280;74095;48.270;14.200;2023-11-19T08:32:46;97926.25;;;5.69
81177;BMP280;74095;48.270;14.200;2023-11-19T08:35:12;97896.59;;;5.72
81177;BMP280;74095;48.270;14.200;2023-11-19T08:37:39;97900.88;;;5.83
81177;BMP280;74095;48.270;14.200;2023-11-19T08:40:09;97899.28;;;5.82
81177;BMP280;74095;48.270;14.200;2023-11-19T08:42:35;97911.69;;;5.76
81177;BMP280;74095;48.270;14.200;2023-11-19T08:45:02;97919.66;;;5.82
81177;BMP280;74095;48.270;14.200;2023-11-19T08:47:31;97897.13;;;5.74
81177;BMP280;74095;48.270;14.200;2023-11-19T08:49:57;97890.28;;;5.78
81177;BMP280;74095;48.270;14.200;2023-11-19T08:52:24;97896.63;;;5.77
81177;BMP280;74095;48.270;14.200;2023-11-19T08:54:53;97891.91;;;5.94
81177;BMP280;74095;48.270;14.200;2023-11-19T08:57:24;97890.31;;;6.08
81177;BMP280;74095;48.270;14.200;2023-11-19T08:59:53;97871.78;;;6.13
81177;BMP280;74095;48.270;14.200;2023-11-19T09:02:21;97871.50;;;6.15
81177;BMP280;74095;48.270;14.200;2023-11-19T09:04:50;97881.31;;;6.04
81177;BMP280;74095;48.270;14.200;2023-11-19T09:07:24;97881.31;;;6.09
81177;BMP280;74095;48.270;14.200;2023-11-19T09:09:51;97879.72;;;6.03
81177;BMP280;74095;48.270;14.200;2023-11-19T09:12:19;97896.66;;;6.17
81177;BMP280;74095;48.270;14.200;2023-11-19T09:14:45;97880.78;;;6.07
81177;BMP280;74095;48.270;14.200;2023-11-19T09:17:12;97883.44;;;6.12
81177;BMP280;74095;48.270;14.200;2023-11-19T09:19:38;97887.69;;;6.23
81177;BMP280;74095;48.270;14.200;2023-11-19T09:22:07;97874.44;;;6.23
81177;BMP280;74095;48.270;14.200;2023-11-19T09:24:33;97859.88;;;6.31
81177;BMP280;74095;48.270;14.200;2023-11-19T09:27:02;97876.03;;;6.35
81177;BMP280;74095;48.270;14.200;2023-11-19T09:29:31;97875.53;;;6.38
81177;BMP280;74095;48.270;14.200;2023-11-19T09:32:04;97871.81;;;6.39
81177;BMP280;74095;48.270;14.200;2023-11-19T09:34:33;97869.69;;;6.41
81177;BMP280;74095;48.270;14.200;2023-11-19T09:37:02;97880.03;;;6.42
81177;BMP280;74095;48.270;14.200;2023-11-19T09:39:32;97871.78;;;6.44
81177;BMP280;74095;48.270;14.200;2023-11-19T09:41:59;97849.03;;;6.28
81177;BMP280;74095;48.270;14.200;2023-11-19T09:44:28;97860.13;;;6.50
81177;BMP280;74095;48.270;14.200;2023-11-19T09:46:58;97860.91;;;6.65
81177;BMP280;74095;48.270;14.200;2023-11-19T09:49:28;97851.59;;;6.73
81177;BMP280;74095;48.270;14.200;2023-11-19T09:51:57;97842.59;;;6.74
81177;BMP280;74095;48.270;14.200;2023-11-19T09:54:24;97853.44;;;6.78
81177;BMP280;74095;48.270;14.200;2023-11-19T09:56:50;97847.88;;;6.69
81177;BMP280;74095;48.270;14.200;2023-11-19T09:59:16;97824.03;;;6.69
81177;BMP280;74095;48.270;14.200;2023-11-19T10:01:43;97839.38;;;6.82
81177;BMP280;74095;48.270;14.200;2023-11-19T10:04:09;97840.97;;;6.93
81177;BMP280;74095;48.270;14.200;2023-11-19T10:06:37;97843.63;;;6.93
81177;BMP280;74095;48.270;14.200;2023-11-19T10:09:03;97841.50;;;6.90
81177;BMP280;74095;48.270;14.200;2023-11-19T10:11:31;97840.44;;;6.86
81177;BMP280;74095;48.270;14.200;2023-11-19T10:13:56;97848.41;;;6.86
81177;BMP280;74095;48.270;14.200;2023-11-19T10:16:28;97837.25;;;6.89
81177;BMP280;74095;48.270;14.200;2023-11-19T10:18:55;97832.22;;;6.88
81177;BMP280;74095;48.270;14.200;2023-11-19T10:21:21;97834.88;;;6.83
81177;BMP280;74095;48.270;14.200;2023-11-19T10:23:55;97837.47;;;7.03
81177;BMP280;74095;48.270;14.200;2023-11-19T10:26:23;97845.19;;;7.04
81177;BMP280;74095;48.270;14.200;2023-11-19T10:28:49;97820.22;;;6.95
81177;BMP280;74095;48.270;14.200;2023-11-19T10:31:16;97843.00;;;7.06
81177;BMP280;74095;48.270;14.200;2023-11-19T10:33:43;97832.38;;;7.11
81177;BMP280;74095;48.270;14.200;2023-11-19T10:36:14;97837.16;;;7.14
81177;BMP280;74095;48.270;14.200;2023-11-19T10:38:40;97815.94;;;7.14
81177;BMP280;74095;48.270;14.200;2023-11-19T10:41:06;97806.31;;;7.23
81177;BMP280;74095;48.270;14.200;2023-11-19T10:43:44;97806.31;;;7.29
81177;BMP280;74095;48.270;14.200;2023-11-19T10:46:11;97807.38;;;7.28
81177;BMP280;74095;48.270;14.200;2023-11-19T10:48:38;97796.72;;;7.33
81177;BMP280;74095;48.270;14.200;2023-11-19T10:51:06;97807.84;;;7.40
81177;BMP280;74095;48.270;14.200;2023-11-19T10:53:37;97800.94;;;7.39
81177;BMP280;74095;48.270;14.200;2023-11-19T10:56:10;97789.28;;;7.35
81177;BMP280;74095;48.270;14.200;2023-11-19T10:58:37;97785.56;;;7.36
81177;BMP280;74095;48.270;14.200;2023-11-19T11:01:13;97807.28;;;7.43
81177;BMP280;74095;48.270;14.200;2023-11-19T11:03:42;97790.94;;;7.26
81177;BMP280;74095;48.270;14.200;2023-11-19T11:06:12;97799.16;;;7.29
81177;BMP280;74095;48.270;14.200;2023-11-19T11:08:39;97784.59;;;7.21
81177;BMP280;74095;48.270;14.200;2023-11-19T11:11:05;97797.03;;;7.26
81177;BMP280;74095;48.270;14.200;2023-11-19T11:13:33;97788.47;;;7.34
81177;BMP280;74095;48.270;14.200;2023-11-19T11:16:00;97778.13;;;7.38
81177;BMP280;74095;48.270;14.200;2023-11-19T11:18:26;97781.22;;;7.50
81177;BMP280;74095;48.270;14.200;2023-11-19T11:21:00;97770.84;;;7.53
81177;BMP280;74095;48.270;14.200;2023-11-19T11:32:47;97745.50;;;7.66
81177;BMP280;74095;48.270;14.200;2023-11-19T11:35:44;97749.56;;;7.63
81177;BMP280;74095;48.270;14.200;2023-11-19T11:38:14;97744.34;;;7.77
81177;BMP280;74095;48.270;14.200;2023-11-19T11:40:40;97754.69;;;7.84
81177;BMP280;74095;48.270;14.200;2023-11-19T11:43:51;97765.56;;;7.82
81177;BMP280;74095;48.270;14.200;2023-11-19T11:54:09;97752.66;;;7.99
81177;BMP280;74095;48.270;14.200;2023-11-19T11:56:38;97770.59;;;8.17
81177;BMP280;74095;48.270;14.200;2023-11-19T11:59:07;97776.38;;;8.25
81177;BMP280;74095;48.270;14.200;2023-11-19T12:01:35;97766.16;;;8.32
81177;BMP280;74095;48.270;14.200;2023-11-19T12:04:01;97759.53;;;8.34
81177;BMP280;74095;48.270;14.200;2023-11-19T12:06:27;97751.31;;;8.31
81177;BMP280;74095;48.270;14.200;2023-11-19T12:08:59;97765.25;;;8.46
81177;BMP280;74095;48.270;14.200;2023-11-19T12:11:25;97758.88;;;8.47
81177;BMP280;74095;48.270;14.200;2023-11-19T12:13:55;97763.31;;;8.52
81177;BMP280;74095;48.270;14.200;2023-11-19T12:16:27;97751.34;;;8.49
81177;BMP280;74095;48.270;14.200;2023-11-19T12:18:54;97760.53;;;8.62
81177;BMP280;74095;48.270;14.200;2023-11-19T12:21:29;97757.69;;;8.58
81177;BMP280;74095;48.270;14.200;2023-11-19T12:23:57;97741.50;;;8.50
81177;BMP280;74095;48.270;14.200;2023-11-19T12:26:35;97743.72;;;8.48
81177;BMP280;74095;48.270;14.200;2023-11-19T12:29:02;97730.94;;;8.45
81177;BMP280;74095;48.270;14.200;2023-11-19T12:31:29;97742.91;;;8.47
81177;BMP280;74095;48.270;14.200;2023-11-19T12:33:56;97747.31;;;8.57
81177;BMP280;74095;48.270;14.200;2023-11-19T12:36:22;97750.69;;;8.62
81177;BMP280;74095;48.270;14.200;2023-11-19T12:38:48;97746.63;;;8.70
81177;BMP280;74095;48.270;14.200;2023-11-19T12:41:14;97731.13;;;8.53
81177;BMP280;74095;48.270;14.200;2023-11-19T12:43:43;97723.50;;;8.47
81177;BMP280;74095;48.270;14.200;2023-11-19T12:46:22;97721.28;;;8.06
81177;BMP280;74095;48.270;14.200;2023-11-19T12:48:49;97727.59;;;8.10
81177;BMP280;74095;48.270;14.200;2023-11-19T12:51:15;97714.22;;;8.20
81177;BMP280;74095;48.270;14.200;2023-11-19T12:53:51;97712.06;;;8.23
81177;BMP280;74095;48.270;14.200;2023-11-19T12:56:20;97725.88;;;8.25
81177;BMP280;74095;48.270;14.200;2023-11-19T12:58:47;97716.75;;;8.31
81177;BMP280;74095;48.270;14.200;2023-11-19T13:01:17;97724.16;;;8.34
81177;BMP280;74095;48.270;14.200;2023-11-19T13:03:44;97712.31;;;8.26
81177;BMP280;74095;48.270;14.200;2023-11-19T13:06:12;97722.19;;;8.44
81177;BMP280;74095;48.270;14.200;2023-11-19T13:08:46;97715.72;;;8.27
81177;BMP280;74095;48.270;14.200;2023-11-19T13:11:14;97727.03;;;8.37
81177;BMP280;74095;48.270;14.200;2023-11-19T13:13:59;97711.06;;;8.42
81177;BMP280;74095;48.270;14.200;2023-11-19T13:16:26;97692.00;;;8.54
81177;BMP280;74095;48.270;14.200;2023-11-19T13:18:53;97703.03;;;8.66
81177;BMP280;74095;48.270;14.200;2023-11-19T13:21:19;97700.91;;;8.68
81177;BMP280;74095;48.270;14.200;2023-11-19T13:23:45;97708.22;;;8.76
81177;BMP280;74095;48.270;14.200;2023-11-19T13:26:11;97700.47;;;8.80
81177;BMP280;74095;48.270;14.200;2023-11-19T13:28:37;97701.06;;;8.95
81177;BMP280;74095;48.270;14.200;2023-11-19T13:31:04;97685.09;;;8.95
81177;BMP280;74095;48.270;14.200;2023-11-19T13:33:30;97682.94;;;8.97
81177;BMP280;74095;48.270;14.200;2023-11-19T13:35:56;97685.91;;;9.09
81177;BMP280;74095;48.270;14.200;2023-11-19T13:38:22;97673.72;;;9.08
81177;BMP280;74095;48.270;14.200;2023-11-19T13:40:49;97661.13;;;8.95
81177;BMP280;74095;48.270;14.200;2023-11-19T13:43:17;97662.34;;;8.84
81177;BMP280;74095;48.270;14.200;2023-11-19T13:45:42;97679.63;;;8.68
81177;BMP280;74095;48.270;14.200;2023-11-19T13:48:08;97675.03;;;8.07
81177;BMP280;74095;48.270;14.200;2023-11-19T13:50:35;97690.16;;;8.31
81177;BMP280;74095;48.270;14.200;2023-11-19T13:53:01;97695.84;;;8.48
81177;BMP280;74095;48.270;14.200;2023-11-19T13:55:27;97704.16;;;8.60
81177;BMP280;74095;48.270;14.200;2023-11-19T13:57:52;97699.03;;;8.68
81177;BMP280;74095;48.270;14.200;2023-11-19T14:00:18;97659.84;;;8.74
81177;BMP280;74095;48.270;14.200;2023-11-19T14:02:46;97687.59;;;8.87
81177;BMP280;74095;48.270;14.200;2023-11-19T14:05:14;97681.69;;;8.90
81177;BMP280;74095;48.270;14.200;2023-11-19T14:07:41;97655.72;;;8.82
81177;BMP280;74095;48.270;14.200;2023-11-19T14:10:07;97670.31;;;8.47
81177;BMP280;74095;48.270;14.200;2023-11-19T14:12:35;97670.78;;;8.30
81177;BMP280;74095;48.270;14.200;2023-11-19T14:15:07;97671.25;;;8.32
81177;BMP280;74095;48.270;14.200;2023-11-19T14:17:35;97654.13;;;8.43
81177;BMP280;74095;48.270;14.200;2023-11-19T14:20:05;97661.13;;;8.58
81177;BMP280;74095;48.270;14.200;2023-11-19T14:22:45;97657.53;;;8.67
81177;BMP280;74095;48.270;14.200;2023-11-19T14:25:14;97662.25;;;8.70
81177;BMP280;74095;48.270;14.200;2023-11-19T14:27:41;97645.59;;;8.65
81177;BMP280;74095;48.270;14.200;2023-11-19T14:30:09;97652.38;;;8.57
81177;BMP280;74095;48.270;14.200;2023-11-19T14:32:42;97678.53;;;8.69
81177;BMP280;74095;48.270;14.200;2023-11-19T14:35:10;97675.66;;;8.65